createdAt,value
2019-02-24T00:02:44.205Z,4.37
2019-02-24T00:05:47.032Z,4.39
2019-02-24T00:08:49.662Z,4.59
2019-02-24T00:11:52.403Z,4.57
2019-02-24T00:14:55.072Z,4.50
2019-02-24T00:17:58.335Z,4.50
2019-02-24T00:21:01.763Z,4.56
2019-02-24T00:24:04.387Z,4.82
2019-02-24T00:27:06.937Z,4.65
2019-02-24T00:30:09.521Z,4.77
2019-02-24T00:33:12.321Z,4.68
2019-02-24T00:36:15.005Z,4.56
2019-02-24T00:39:17.630Z,4.50
2019-02-24T00:42:20.353Z,4.38
2019-02-24T00:45:24.264Z,4.35
2019-02-24T00:48:26.945Z,4.19
2019-02-24T00:51:31.979Z,4.24
2019-02-24T00:54:34.662Z,4.35
2019-02-24T00:57:37.367Z,4.24
2019-02-24T01:00:39.938Z,4.62
2019-02-24T01:03:42.638Z,4.34
2019-02-24T01:06:45.210Z,4.09
2019-02-24T01:09:47.843Z,4.10
2019-02-24T01:12:50.566Z,3.99
2019-02-24T01:15:53.295Z,3.75
2019-02-24T01:18:55.891Z,3.59
2019-02-24T01:21:58.482Z,3.63
2019-02-24T01:25:01.103Z,3.93
2019-02-24T01:28:03.728Z,3.84
2019-02-24T01:31:06.393Z,3.63
2019-02-24T01:34:09.016Z,3.40
2019-02-24T01:37:11.573Z,3.33
2019-02-24T01:40:14.147Z,3.48
2019-02-24T01:43:16.761Z,3.34
2019-02-24T01:46:19.348Z,3.14
2019-02-24T01:49:21.995Z,2.80
2019-02-24T01:52:24.552Z,2.75
2019-02-24T01:55:27.136Z,2.80
2019-02-24T01:58:35.087Z,2.81
2019-02-24T02:01:35.627Z,2.72
2019-02-24T02:04:39.293Z,2.65
2019-02-24T02:07:41.900Z,2.51
2019-02-24T02:10:44.547Z,2.58
2019-02-24T02:13:47.227Z,2.62
2019-02-24T02:16:49.957Z,2.73
2019-02-24T02:19:52.586Z,2.44
2019-02-24T02:22:55.304Z,2.54
2019-02-24T02:25:58.047Z,2.60
2019-02-24T02:29:00.695Z,2.59
2019-02-24T02:32:03.353Z,2.44
2019-02-24T02:35:06.567Z,2.38
2019-02-24T02:38:10.308Z,2.28
2019-02-24T02:41:12.880Z,2.28
2019-02-24T02:44:16.761Z,2.39
2019-02-24T02:47:19.416Z,2.43
2019-02-24T02:50:22.177Z,2.57
2019-02-24T02:53:24.692Z,2.47
2019-02-24T02:56:27.274Z,2.59
2019-02-24T02:59:29.906Z,2.43
2019-02-24T03:02:32.494Z,2.36
2019-02-24T03:05:35.161Z,2.50
2019-02-24T03:08:48.678Z,2.32
2019-02-24T03:11:51.287Z,2.16
2019-02-24T03:14:53.957Z,2.14
2019-02-24T03:17:56.560Z,2.36
2019-02-24T03:20:59.264Z,2.51
2019-02-24T03:24:01.810Z,2.40
2019-02-24T03:27:04.525Z,2.13
2019-02-24T03:30:09.860Z,2.02
2019-02-24T03:33:12.577Z,1.94
2019-02-24T03:36:15.196Z,1.77
2019-02-24T03:39:17.914Z,1.84
2019-02-24T03:42:21.646Z,1.86
2019-02-24T03:45:24.219Z,1.95
2019-02-24T03:48:26.901Z,2.09
2019-02-24T03:51:29.586Z,1.87
2019-02-24T03:54:32.319Z,1.67
2019-02-24T03:57:34.905Z,1.53
2019-02-24T04:00:37.585Z,1.45
2019-02-24T04:03:40.253Z,1.40
2019-02-24T04:06:42.862Z,1.48
2019-02-24T04:09:45.470Z,1.55
2019-02-24T04:12:48.025Z,1.43
2019-02-24T04:15:52.092Z,1.36
2019-02-24T04:18:55.640Z,1.31
2019-02-24T04:21:58.402Z,1.26
2019-02-24T04:25:01.095Z,1.08
2019-02-24T04:28:03.822Z,1.11
2019-02-24T04:31:06.431Z,1.10
2019-02-24T04:34:09.141Z,1.41
2019-02-24T04:37:11.766Z,1.24
2019-02-24T04:40:14.364Z,1.47
2019-02-24T04:43:17.064Z,1.40
2019-02-24T04:46:19.648Z,1.28
2019-02-24T04:49:23.380Z,1.35
2019-02-24T04:52:25.929Z,1.60
2019-02-24T04:55:31.414Z,1.56
2019-02-24T04:58:33.986Z,1.53
2019-02-24T05:01:38.111Z,1.47
2019-02-24T05:04:40.801Z,1.47
2019-02-24T05:07:43.499Z,1.46
2019-02-24T05:10:46.025Z,1.37
2019-02-24T05:13:48.646Z,1.43
2019-02-24T05:16:51.323Z,1.57
2019-02-24T05:19:54.031Z,1.67
2019-02-24T05:22:59.745Z,1.67
2019-02-24T05:26:02.336Z,1.73
2019-02-24T05:29:05.011Z,1.68
2019-02-24T05:32:07.690Z,1.58
2019-02-24T05:35:10.270Z,1.33
2019-02-24T05:38:12.964Z,1.35
2019-02-24T05:41:15.640Z,1.20
2019-02-24T05:44:18.230Z,1.60
2019-02-24T05:47:20.866Z,1.69
2019-02-24T05:50:23.590Z,1.29
2019-02-24T05:53:26.276Z,1.26
2019-02-24T05:56:28.831Z,1.07
2019-02-24T05:59:31.491Z,0.96
2019-02-24T06:02:34.104Z,0.97
2019-02-24T06:05:37.130Z,1.17
2019-02-24T06:08:39.755Z,1.06
2019-02-24T06:11:42.388Z,1.22
2019-02-24T06:14:45.081Z,1.36
2019-02-24T06:17:47.695Z,1.41
2019-02-24T06:20:50.396Z,1.51
2019-02-24T06:23:53.041Z,1.38
2019-02-24T06:26:55.740Z,1.19
2019-02-24T06:30:05.111Z,1.31
2019-02-24T06:33:02.885Z,1.57
2019-02-24T06:36:05.715Z,1.41
2019-02-24T06:39:08.494Z,1.26
2019-02-24T06:42:11.155Z,1.18
2019-02-24T06:45:14.126Z,1.16
2019-02-24T06:48:16.845Z,1.20
2019-02-24T06:51:19.429Z,1.35
2019-02-24T06:54:24.921Z,1.80
2019-02-24T06:57:27.620Z,1.78
2019-02-24T07:00:32.145Z,1.87
2019-02-24T07:03:34.692Z,1.98
2019-02-24T07:06:37.350Z,2.11
2019-02-24T07:09:39.921Z,2.25
2019-02-24T07:12:42.678Z,2.40
2019-02-24T07:15:45.450Z,2.70
2019-02-24T07:18:47.960Z,3.31
2019-02-24T07:21:50.615Z,3.48
2019-02-24T07:24:53.370Z,3.60
2019-02-24T07:27:56.035Z,3.87
2019-02-24T07:30:58.734Z,3.82
2019-02-24T07:34:01.331Z,3.82
2019-02-24T07:37:12.602Z,3.78
2019-02-24T07:40:14.646Z,3.77
2019-02-24T07:43:15.934Z,3.87
2019-02-24T07:46:18.729Z,3.86
2019-02-24T07:49:21.419Z,3.78
2019-02-24T07:52:24.008Z,3.85
2019-02-24T07:55:27.573Z,3.95
2019-02-24T07:58:30.351Z,4.00
2019-02-24T08:01:32.981Z,4.13
2019-02-24T08:04:35.774Z,4.27
2019-02-24T08:07:43.564Z,4.35
2019-02-24T08:10:46.298Z,4.42
2019-02-24T08:13:48.913Z,4.65
2019-02-24T08:16:51.494Z,5.02
2019-02-24T08:19:54.295Z,5.20
2019-02-24T08:22:56.975Z,5.19
2019-02-24T08:25:59.551Z,5.33
2019-02-24T08:29:02.253Z,5.19
2019-02-24T08:32:06.839Z,4.76
2019-02-24T08:35:15.690Z,4.86
2019-02-24T08:38:18.271Z,4.73
2019-02-24T08:41:21.024Z,4.76
2019-02-24T08:44:23.706Z,4.90
2019-02-24T08:47:26.283Z,5.07
2019-02-24T08:50:28.950Z,5.17
2019-02-24T08:53:31.566Z,4.96
2019-02-24T08:56:34.140Z,5.22
2019-02-24T08:59:38.254Z,5.32
2019-02-24T09:02:41.425Z,5.40
2019-02-24T09:05:44.099Z,5.80
2019-02-24T09:08:46.749Z,6.12
2019-02-24T09:11:49.479Z,5.90
2019-02-24T09:14:52.112Z,5.87
2019-02-24T09:17:54.759Z,5.99
2019-02-24T09:20:57.626Z,5.81
2019-02-24T09:24:02.140Z,5.87
2019-02-24T09:27:04.911Z,5.98
2019-02-24T09:30:08.331Z,6.20
2019-02-24T09:33:11.184Z,6.36
2019-02-24T09:36:13.854Z,6.31
2019-02-24T09:39:17.056Z,6.41
2019-02-24T09:42:22.095Z,6.52
2019-02-24T09:45:24.698Z,6.60
2019-02-24T09:48:27.480Z,6.60
2019-02-24T09:51:30.109Z,6.59
2019-02-24T09:54:32.789Z,6.59
2019-02-24T09:57:37.044Z,6.65
2019-02-24T10:00:39.914Z,6.73
2019-02-24T10:03:42.699Z,6.83
2019-02-24T10:06:45.375Z,7.12
2019-02-24T10:09:50.343Z,7.35
2019-02-24T10:12:53.054Z,7.44
2019-02-24T10:15:57.749Z,7.96
2019-02-24T10:19:00.418Z,8.16
2019-02-24T10:22:02.965Z,8.12
2019-02-24T10:25:06.057Z,8.02
2019-02-24T10:28:08.830Z,7.83
2019-02-24T10:31:19.628Z,7.84
2019-02-24T10:34:15.968Z,7.59
2019-02-24T10:37:19.623Z,7.69
2019-02-24T10:40:22.211Z,7.82
2019-02-24T10:43:24.979Z,7.94
2019-02-24T10:46:28.874Z,8.15
2019-02-24T10:49:31.479Z,8.21
2019-02-24T10:52:34.122Z,8.28
2019-02-24T10:55:36.853Z,8.55
2019-02-24T10:58:39.533Z,8.55
2019-02-24T11:01:43.273Z,8.56
2019-02-24T11:04:51.565Z,8.67
2019-02-24T11:07:54.258Z,8.57
2019-02-24T11:10:56.861Z,8.66
2019-02-24T11:13:59.543Z,8.78
2019-02-24T11:17:02.278Z,8.96
2019-02-24T11:20:06.363Z,8.95
2019-02-24T11:23:15.208Z,9.03
2019-02-24T11:26:19.692Z,9.11
2019-02-24T11:29:22.319Z,9.23
2019-02-24T11:32:25.833Z,9.12
2019-02-24T11:35:28.474Z,9.05
2019-02-24T11:38:31.048Z,9.16
2019-02-24T11:41:33.641Z,9.16
2019-02-24T11:44:36.395Z,9.02
2019-02-24T11:47:39.103Z,9.15
2019-02-24T11:50:41.843Z,9.04
2019-02-24T11:53:44.629Z,9.16
2019-02-24T11:56:47.285Z,8.97
2019-02-24T11:59:50.249Z,9.02
2019-02-24T12:02:54.071Z,8.98
2019-02-24T12:05:58.319Z,9.29
2019-02-24T12:09:05.208Z,9.52
2019-02-24T12:12:07.330Z,9.57
2019-02-24T12:15:09.978Z,9.70
2019-02-24T12:18:12.728Z,9.68
2019-02-24T12:21:15.494Z,9.82
2019-02-24T12:24:18.264Z,9.91
2019-02-24T12:27:20.907Z,9.81
2019-02-24T12:30:23.583Z,9.77
2019-02-24T12:33:26.123Z,9.77
2019-02-24T12:36:28.821Z,9.70
2019-02-24T12:39:31.399Z,9.59
2019-02-24T12:42:34.390Z,10.05
2019-02-24T12:45:36.986Z,10.57
2019-02-24T12:48:39.679Z,10.60
2019-02-24T12:51:42.485Z,10.82
2019-02-24T12:54:45.180Z,10.72
2019-02-24T12:57:48.299Z,10.50
2019-02-24T13:00:51.028Z,10.62
2019-02-24T13:03:53.635Z,10.87
2019-02-24T13:06:57.625Z,10.57
2019-02-24T13:10:00.513Z,10.45
2019-02-24T13:13:03.242Z,10.30
2019-02-24T13:16:05.999Z,10.26
2019-02-24T13:19:08.703Z,10.16
2019-02-24T13:22:11.538Z,10.12
2019-02-24T13:25:14.320Z,10.31
2019-02-24T13:28:16.950Z,10.27
2019-02-24T13:31:19.654Z,10.67
2019-02-24T13:34:22.343Z,10.65
2019-02-24T13:37:25.135Z,10.44
2019-02-24T13:40:27.825Z,10.36
2019-02-24T13:43:30.504Z,10.37
2019-02-24T13:46:33.188Z,10.70
2019-02-24T13:49:35.926Z,10.86
2019-02-24T13:52:38.753Z,10.72
2019-02-24T13:55:41.384Z,10.70
2019-02-24T13:58:44.113Z,10.52
2019-02-24T14:01:46.782Z,10.59
2019-02-24T14:04:49.410Z,10.57
2019-02-24T14:07:52.085Z,10.82
2019-02-24T14:10:54.633Z,10.79
2019-02-24T14:13:58.455Z,10.60
2019-02-24T14:17:01.050Z,10.51
2019-02-24T14:20:03.945Z,10.57
2019-02-24T14:23:06.728Z,10.68
2019-02-24T14:26:10.277Z,10.53
2019-02-24T14:29:12.968Z,10.44
2019-02-24T14:32:15.679Z,10.31
2019-02-24T14:35:18.284Z,10.20
2019-02-24T14:38:20.910Z,10.09
2019-02-24T14:41:23.615Z,10.10
2019-02-24T14:44:26.360Z,10.01
2019-02-24T14:47:28.994Z,9.91
2019-02-24T14:50:31.637Z,10.13
2019-02-24T14:53:34.349Z,9.97
2019-02-24T14:56:37.025Z,9.77
2019-02-24T14:59:39.720Z,9.79
2019-02-24T15:02:42.988Z,9.66
2019-02-24T15:05:45.824Z,9.59
2019-02-24T15:08:48.504Z,9.69
2019-02-24T15:11:53.440Z,9.98
2019-02-24T15:14:56.103Z,9.70
2019-02-24T15:17:58.749Z,9.61
2019-02-24T15:21:01.373Z,9.60
2019-02-24T15:24:04.118Z,9.44
2019-02-24T15:27:06.849Z,9.50
2019-02-24T15:30:12.745Z,9.30
2019-02-24T15:33:15.418Z,9.21
2019-02-24T15:36:17.945Z,9.18
2019-02-24T15:39:20.804Z,9.02
2019-02-24T15:42:23.539Z,8.89
2019-02-24T15:45:26.190Z,8.91
2019-02-24T15:48:28.976Z,8.82
2019-02-24T15:51:32.583Z,8.76
2019-02-24T15:54:35.328Z,8.70
2019-02-24T15:57:38.050Z,8.71
2019-02-24T16:00:40.722Z,8.57
2019-02-24T16:03:44.428Z,8.56
2019-02-24T16:06:47.153Z,8.53
2019-02-24T16:09:49.824Z,8.51
2019-02-24T16:12:52.525Z,8.49
2019-02-24T16:15:55.316Z,8.39
2019-02-24T16:18:58.053Z,8.29
2019-02-24T16:22:00.958Z,8.22
2019-02-24T16:25:04.229Z,8.17
2019-02-24T16:28:06.922Z,8.06
2019-02-24T16:31:09.578Z,8.01
2019-02-24T16:34:12.318Z,7.97
2019-02-24T16:37:18.034Z,7.79
2019-02-24T16:40:20.678Z,7.72
2019-02-24T16:43:24.541Z,7.70
2019-02-24T16:46:27.138Z,7.63
2019-02-24T16:49:29.857Z,7.55
2019-02-24T16:52:32.798Z,7.48
2019-02-24T16:55:36.663Z,7.48
2019-02-24T16:58:39.464Z,7.45
2019-02-24T17:01:42.086Z,7.31
2019-02-24T17:04:44.858Z,7.28
2019-02-24T17:07:49.236Z,7.20
2019-02-24T17:10:53.098Z,7.05
2019-02-24T17:13:55.847Z,7.10
2019-02-24T17:17:01.586Z,7.19
2019-02-24T17:20:03.497Z,7.14
2019-02-24T17:23:06.172Z,7.12
2019-02-24T17:26:08.750Z,7.10
2019-02-24T17:29:13.915Z,7.03
2019-02-24T17:32:16.577Z,6.94
2019-02-24T17:35:20.595Z,6.91
2019-02-24T17:38:23.353Z,6.87
2019-02-24T17:41:26.027Z,6.91
2019-02-24T17:44:28.730Z,6.90
2019-02-24T17:47:31.452Z,6.94
2019-02-24T17:50:34.338Z,6.80
2019-02-24T17:53:37.213Z,6.68
2019-02-24T17:56:40.168Z,6.64
2019-02-24T17:59:42.867Z,6.82
2019-02-24T18:02:45.581Z,6.87
2019-02-24T18:05:48.292Z,6.88
2019-02-24T18:08:54.306Z,6.88
2019-02-24T18:11:55.427Z,6.86
2019-02-24T18:14:58.178Z,6.97
2019-02-24T18:18:00.908Z,6.98
2019-02-24T18:21:03.526Z,6.83
2019-02-24T18:24:08.172Z,7.34
2019-02-24T18:27:10.911Z,7.78
2019-02-24T18:30:16.192Z,7.70
2019-02-24T18:33:18.807Z,7.44
2019-02-24T18:36:21.503Z,7.79
2019-02-24T18:39:24.164Z,7.76
2019-02-24T18:42:26.911Z,7.82
2019-02-24T18:45:29.663Z,7.34
2019-02-24T18:48:32.523Z,7.19
2019-02-24T18:51:35.321Z,7.14
2019-02-24T18:54:37.988Z,6.94
2019-02-24T18:57:40.819Z,7.04
2019-02-24T19:00:43.527Z,7.19
2019-02-24T19:03:46.129Z,7.76
2019-02-24T19:06:48.885Z,7.46
2019-02-24T19:09:51.653Z,7.54
2019-02-24T19:12:54.287Z,7.19
2019-02-24T19:15:56.954Z,7.33
2019-02-24T19:18:59.761Z,7.47
2019-02-24T19:22:02.537Z,7.48
2019-02-24T19:25:05.522Z,7.17
2019-02-24T19:28:08.092Z,7.16
2019-02-24T19:31:10.690Z,7.50
2019-02-24T19:34:14.500Z,7.54
2019-02-24T19:37:18.062Z,7.23
2019-02-24T19:40:26.298Z,7.16
2019-02-24T19:43:30.141Z,7.43
2019-02-24T19:46:33.982Z,7.52
2019-02-24T19:49:36.677Z,7.29
2019-02-24T19:52:39.317Z,7.27
2019-02-24T19:55:41.958Z,7.81
2019-02-24T19:58:44.511Z,8.58
2019-02-24T20:01:47.236Z,7.99
2019-02-24T20:04:49.826Z,7.45
2019-02-24T20:07:52.657Z,7.19
2019-02-24T20:10:55.299Z,7.10
2019-02-24T20:13:57.843Z,6.89
2019-02-24T20:17:00.506Z,6.70
2019-02-24T20:20:03.323Z,6.80
2019-02-24T20:23:06.109Z,6.88
2019-02-24T20:26:08.832Z,6.78
2019-02-24T20:29:11.509Z,6.78
2019-02-24T20:32:14.118Z,6.80
2019-02-24T20:35:17.855Z,6.76
2019-02-24T20:38:20.554Z,6.78
2019-02-24T20:41:24.198Z,6.66
2019-02-24T20:44:26.876Z,6.60
2019-02-24T20:47:29.762Z,6.57
2019-02-24T20:50:32.476Z,6.44
2019-02-24T20:53:35.168Z,6.72
2019-02-24T20:56:38.856Z,6.48
2019-02-24T20:59:43.012Z,6.56
2019-02-24T21:02:45.638Z,6.89
2019-02-24T21:05:50.039Z,7.40
2019-02-24T21:08:52.992Z,6.93
2019-02-24T21:11:55.534Z,6.66
2019-02-24T21:14:58.194Z,6.53
2019-02-24T21:18:00.808Z,6.48
2019-02-24T21:21:03.589Z,6.41
2019-02-24T21:24:06.276Z,6.37
2019-02-24T21:27:08.993Z,6.33
2019-02-24T21:30:15.676Z,6.42
2019-02-24T21:33:18.397Z,6.50
2019-02-24T21:36:21.148Z,6.60
2019-02-24T21:39:25.071Z,6.53
2019-02-24T21:42:27.820Z,6.60
2019-02-24T21:45:30.567Z,6.49
2019-02-24T21:48:33.238Z,6.27
2019-02-24T21:51:35.897Z,6.29
2019-02-24T21:54:38.507Z,6.00
2019-02-24T21:57:41.296Z,5.96
2019-02-24T22:00:44.766Z,5.87
2019-02-24T22:03:47.440Z,5.81
2019-02-24T22:06:50.057Z,5.71
2019-02-24T22:09:52.758Z,5.64
2019-02-24T22:12:55.344Z,5.52
2019-02-24T22:15:58.242Z,5.38
2019-02-24T22:19:00.831Z,5.33
2019-02-24T22:22:03.373Z,5.21
2019-02-24T22:25:06.391Z,5.18
2019-02-24T22:28:09.076Z,5.42
2019-02-24T22:31:12.665Z,5.07
2019-02-24T22:34:15.369Z,5.23
2019-02-24T22:37:17.977Z,5.10
2019-02-24T22:40:20.728Z,4.93
2019-02-24T22:43:23.393Z,4.84
2019-02-24T22:46:26.079Z,4.73
2019-02-24T22:49:28.728Z,4.92
2019-02-24T22:52:31.284Z,5.02
2019-02-24T22:55:33.915Z,4.83
2019-02-24T22:58:45.641Z,4.82
2019-02-24T23:01:48.792Z,4.72
2019-02-24T23:04:51.393Z,4.78
2019-02-24T23:07:54.137Z,5.18
2019-02-24T23:10:56.851Z,5.01
2019-02-24T23:13:59.411Z,5.04
2019-02-24T23:17:04.122Z,4.65
2019-02-24T23:20:06.907Z,4.56
2019-02-24T23:23:10.837Z,4.58
2019-02-24T23:26:13.500Z,4.67
2019-02-24T23:29:16.174Z,4.68
2019-02-24T23:32:18.819Z,4.87
2019-02-24T23:35:21.397Z,4.97
2019-02-24T23:38:24.072Z,4.95
2019-02-24T23:41:26.661Z,5.02
2019-02-24T23:44:30.427Z,4.96
2019-02-24T23:47:32.967Z,5.35
2019-02-24T23:50:35.607Z,5.11
2019-02-24T23:53:38.248Z,5.03
2019-02-24T23:56:40.882Z,5.17
2019-02-24T23:59:43.492Z,5.27
